Margaret — WDC3267 — position and weather

sailwx.info

Track history (hours):
 
Tides and Currents Weather Stations Pressure Air Temp Water Temp Dewpoint Dewpoint Depression Visibility Wind Speed Wind Dir Waves Ship Positions

Margaret

Owner: Cooper Marine & Timberlands Corporation, Mobile, AL. More information available from US FCC via Universal Licensing System and Coast Guard Vessel Documentation Center.

Last reported at 2015-Jan-28 01:31 UTC. Time now 2015-Mar-05 10:27 UTC.
Position N 30°23' W 086°57'.
Warning: this ship's position is 36 days out of date.

; draft 9 m.

Type: Towing. MMSI: 367004940.

Date/timePositionNaut miles runAvg speedWind from/ knotsBaromVisibWave heightAir tempDewpointWater temp
2015-Jan-28 01:31N 30°23' W 086°57'6 6.0
2015-Jan-28 00:33N 30°24' W 086°50'12 5.3
2015-Jan-27 22:16N 30°24' W 086°36'4 5.8
2015-Jan-27 21:34N 30°25' W 086°31'6 5.6
2015-Jan-27 20:33N 30°31' W 086°29'1 0.8
2015-Jan-27 19:34N 30°31' W 086°30'0 0.0
2015-Jan-27 18:34N 30°31' W 086°30'0 0.0
2015-Jan-27 17:34N 30°31' W 086°30'0 0.0
2015-Jan-27 16:32N 30°31' W 086°30'0 0.0
2015-Jan-27 15:33N 30°31' W 086°30'0 0.0
2015-Jan-27 14:33N 30°31' W 086°30'0 0.0
2015-Jan-27 13:34N 30°31' W 086°30'0 0.0
2015-Jan-27 12:33N 30°31' W 086°30'0 0.0
2015-Jan-27 11:33N 30°31' W 086°30'0 0.0
2015-Jan-27 10:34N 30°31' W 086°30'0 0.0
2015-Jan-27 09:33N 30°31' W 086°30'0 0.0
2015-Jan-27 08:16N 30°31' W 086°30'0 0.0
2015-Jan-27 07:34N 30°31' W 086°30'0 0.0
2015-Jan-27 06:33N 30°31' W 086°30'0 0.0
2015-Jan-27 05:34N 30°31' W 086°30'0 0.0
2015-Jan-27 04:33N 30°31' W 086°30'0 0.0
2015-Jan-27 03:34N 30°31' W 086°30'0 0.0
2015-Jan-27 02:32N 30°31' W 086°30'0 0.0
2015-Jan-27 01:33N 30°31' W 086°30'0 0.0
2015-Jan-27 00:33N 30°31' W 086°30'0 0.0
2015-Jan-26 23:34N 30°31' W 086°30'0 0.0
2015-Jan-26 22:33N 30°31' W 086°30'0 0.0
2015-Jan-26 21:24N 30°31' W 086°30'0 0.1
2015-Jan-26 20:34N 30°31' W 086°30'0 0.0
2015-Jan-26 19:34N 30°31' W 086°30'0 0.0
2015-Jan-26 18:25N 30°31' W 086°30'0 0.1
2015-Jan-26 17:34N 30°31' W 086°30'0 0.0
2015-Jan-26 16:34N 30°31' W 086°30'0 0.0
2015-Jan-26 15:34N 30°31' W 086°30'0 0.1
2015-Jan-26 14:32N 30°31' W 086°30'3 3.4
2015-Jan-26 13:33N 30°28' W 086°28'14 5.9
2015-Jan-26 11:12N 30°24' W 086°44'4 6.6
2015-Jan-26 10:33N 30°24' W 086°49'7 0.9
2015-Jan-26 02:31N 30°23' W 086°57'7 7.3
2015-Jan-26 01:33N 30°24' W 086°49'8 6.1
2015-Jan-26 00:11N 30°24' W 086°39'4 5.7
2015-Jan-25 23:33N 30°24' W 086°35'6 6.4
2015-Jan-25 22:33N 30°27' W 086°29'4 4.0
2015-Jan-25 21:33N 30°31' W 086°30'0 0.1
2015-Jan-25 20:33N 30°31' W 086°30'0 0.0
2015-Jan-25 19:33N 30°31' W 086°30'0 0.0
2015-Jan-25 18:33N 30°31' W 086°30'0 0.1
2015-Jan-25 17:32N 30°31' W 086°30'0 0.0
2015-Jan-25 16:33N 30°31' W 086°30'0 0.1
2015-Jan-25 15:33N 30°31' W 086°30'0 0.0
2015-Jan-25 14:33N 30°31' W 086°30'0 0.0
2015-Jan-25 13:33N 30°31' W 086°30'0 0.1
2015-Jan-25 12:33N 30°31' W 086°30'0 0.0
2015-Jan-25 11:33N 30°31' W 086°30'0 0.0
2015-Jan-25 10:33N 30°31' W 086°30'0 0.0
2015-Jan-25 09:33N 30°31' W 086°30'0 0.0
2015-Jan-25 08:14N 30°31' W 086°30'0 0.0
2015-Jan-25 07:33N 30°31' W 086°30'0 0.0
2015-Jan-25 06:33N 30°31' W 086°30'0 0.0
2015-Jan-25 05:33N 30°31' W 086°30'0 0.0
2015-Jan-25 04:33N 30°31' W 086°30'0 0.0
2015-Jan-25 03:33N 30°31' W 086°30'0 0.0
2015-Jan-25 02:33N 30°31' W 086°30'0 0.0
2015-Jan-25 01:33N 30°31' W 086°30'0 0.0
2015-Jan-25 00:33N 30°31' W 086°30'0 0.0
2015-Jan-24 23:33N 30°31' W 086°30'1 0.9
2015-Jan-24 22:33N 30°30' W 086°29'5 4.7
2015-Jan-24 21:33N 30°26' W 086°31'8 5.2
2015-Jan-24 20:03N 30°24' W 086°40'3 4.8
2015-Jan-24 19:27N 30°24' W 086°43'5 5.1
2015-Jan-24 18:33N 30°24' W 086°48'4 4.4
2015-Jan-24 17:33N 30°24' W 086°53'  
2015-Jan-21 06:05N 29°60' W 090°00'0 0.0
2015-Jan-21 05:28N 29°60' W 090°00'0 0.1
2015-Jan-21 03:26N 29°60' W 090°01'1 1.3
2015-Jan-21 02:31N 29°59' W 090°01'2 1.5
2015-Jan-21 01:26N 29°57' W 090°02'0 0.3
2015-Jan-21 00:04N 29°57' W 090°02'0 0.0
2015-Jan-20 23:07N 29°57' W 090°02'0 0.0
2015-Jan-20 22:32N 29°57' W 090°02'0 0.0
2015-Jan-20 21:23N 29°57' W 090°02'0 0.0
2015-Jan-20 20:28N 29°57' W 090°02'0 0.0
2015-Jan-20 19:10N 29°57' W 090°02'0 0.0
2015-Jan-20 18:31N 29°57' W 090°02'0 0.0
2015-Jan-20 16:30N 29°57' W 090°02'0 0.3
2015-Jan-20 15:30N 29°57' W 090°02'0 0.3
2015-Jan-20 14:26N 29°57' W 090°02'0 0.0
2015-Jan-20 13:33N 29°57' W 090°02'0 0.0
2015-Jan-20 12:26N 29°57' W 090°02'0 0.0
2015-Jan-20 11:32N 29°57' W 090°02'0 0.0
2015-Jan-20 10:28N 29°57' W 090°02'0 0.0
2015-Jan-20 09:32N 29°57' W 090°02'0 0.0
2015-Jan-20 08:33N 29°57' W 090°02'0 0.0
2015-Jan-20 07:33N 29°57' W 090°02'0 0.0
2015-Jan-20 06:31N 29°57' W 090°02'0 0.0
2015-Jan-20 05:27N 29°57' W 090°02'0 0.0
2015-Jan-20 04:29N 29°57' W 090°02'0 0.0
2015-Jan-20 03:30N 29°57' W 090°02'0 0.0
2015-Jan-20 02:23N 29°57' W 090°02'0 0.0
2015-Jan-20 01:22N 29°57' W 090°02'0 0.0
2015-Jan-20 00:32N 29°57' W 090°02'0 0.0
2015-Jan-19 23:30N 29°57' W 090°02'0 0.0
2015-Jan-19 22:33N 29°57' W 090°02'0 0.0
2015-Jan-19 21:33N 29°57' W 090°02'2 1.7
2015-Jan-19 20:17N 29°56' W 090°04'3 2.5
2015-Jan-19 19:03N 29°54' W 090°07'0 0.0
2015-Jan-19 17:24N 29°54' W 090°07'0 0.0
2015-Jan-19 16:29N 29°54' W 090°07'0 0.0
2015-Jan-19 15:32N 29°54' W 090°07'0 0.1
2015-Jan-19 14:08N 29°54' W 090°07'0 0.6
2015-Jan-19 13:31N 29°54' W 090°07'0 0.3
2015-Jan-19 12:30N 29°54' W 090°07'0 0.0
2015-Jan-19 10:04N 29°54' W 090°07'0 0.1
2015-Jan-19 09:27N 29°54' W 090°07'0 0.0
2015-Jan-19 08:31N 29°54' W 090°07'5 3.7
2015-Jan-19 07:17N 29°57' W 090°03'5 4.4
2015-Jan-19 06:10N 29°55' W 089°58'3 0.9
2015-Jan-19 03:16N 29°53' W 090°00'3 3.1
2015-Jan-19 02:26N 29°55' W 089°58'5 5.5
2015-Jan-19 01:31N 29°57' W 090°04'5 4.3
2015-Jan-19 00:14N 29°57' W 090°10'0 0.0
2015-Jan-18 01:31N 29°57' W 090°10'  
Track history (hours):
 
Tides and Currents Weather Stations Pressure Air Temp Water Temp Dewpoint Dewpoint Depression Visibility Wind Speed Wind Dir Waves Ship Positions

Margaret

Owner: Cooper Marine & Timberlands Corporation, Mobile, AL. More information available from US FCC via Universal Licensing System and Coast Guard Vessel Documentation Center.

Last reported at 2015-Jan-28 01:31 UTC. Time now 2015-Mar-05 10:27 UTC.
Position N 30°23' W 086°57'.
Warning: this ship's position is 36 days out of date.

; draft 9 m.

Type: Towing. MMSI: 367004940.

Date/timePositionNaut miles runAvg speedWind from/ knotsBaromVisibWave heightAir tempDewpointWater temp
2015-Jan-28 01:31N 30°23' W 086°57'6 6.0
2015-Jan-28 00:33N 30°24' W 086°50'12 5.3
2015-Jan-27 22:16N 30°24' W 086°36'4 5.8
2015-Jan-27 21:34N 30°25' W 086°31'6 5.6
2015-Jan-27 20:33N 30°31' W 086°29'1 0.8
2015-Jan-27 19:34N 30°31' W 086°30'0 0.0
2015-Jan-27 18:34N 30°31' W 086°30'0 0.0
2015-Jan-27 17:34N 30°31' W 086°30'0 0.0
2015-Jan-27 16:32N 30°31' W 086°30'0 0.0
2015-Jan-27 15:33N 30°31' W 086°30'0 0.0
2015-Jan-27 14:33N 30°31' W 086°30'0 0.0
2015-Jan-27 13:34N 30°31' W 086°30'0 0.0
2015-Jan-27 12:33N 30°31' W 086°30'0 0.0
2015-Jan-27 11:33N 30°31' W 086°30'0 0.0
2015-Jan-27 10:34N 30°31' W 086°30'0 0.0
2015-Jan-27 09:33N 30°31' W 086°30'0 0.0
2015-Jan-27 08:16N 30°31' W 086°30'0 0.0
2015-Jan-27 07:34N 30°31' W 086°30'0 0.0
2015-Jan-27 06:33N 30°31' W 086°30'0 0.0
2015-Jan-27 05:34N 30°31' W 086°30'0 0.0
2015-Jan-27 04:33N 30°31' W 086°30'0 0.0
2015-Jan-27 03:34N 30°31' W 086°30'0 0.0
2015-Jan-27 02:32N 30°31' W 086°30'0 0.0
2015-Jan-27 01:33N 30°31' W 086°30'0 0.0
2015-Jan-27 00:33N 30°31' W 086°30'0 0.0
2015-Jan-26 23:34N 30°31' W 086°30'0 0.0
2015-Jan-26 22:33N 30°31' W 086°30'0 0.0
2015-Jan-26 21:24N 30°31' W 086°30'0 0.1
2015-Jan-26 20:34N 30°31' W 086°30'0 0.0
2015-Jan-26 19:34N 30°31' W 086°30'0 0.0
2015-Jan-26 18:25N 30°31' W 086°30'0 0.1
2015-Jan-26 17:34N 30°31' W 086°30'0 0.0
2015-Jan-26 16:34N 30°31' W 086°30'0 0.0
2015-Jan-26 15:34N 30°31' W 086°30'0 0.1
2015-Jan-26 14:32N 30°31' W 086°30'3 3.4
2015-Jan-26 13:33N 30°28' W 086°28'14 5.9
2015-Jan-26 11:12N 30°24' W 086°44'4 6.6
2015-Jan-26 10:33N 30°24' W 086°49'7 0.9
2015-Jan-26 02:31N 30°23' W 086°57'7 7.3
2015-Jan-26 01:33N 30°24' W 086°49'8 6.1
2015-Jan-26 00:11N 30°24' W 086°39'4 5.7
2015-Jan-25 23:33N 30°24' W 086°35'6 6.4
2015-Jan-25 22:33N 30°27' W 086°29'4 4.0
2015-Jan-25 21:33N 30°31' W 086°30'0 0.1
2015-Jan-25 20:33N 30°31' W 086°30'0 0.0
2015-Jan-25 19:33N 30°31' W 086°30'0 0.0
2015-Jan-25 18:33N 30°31' W 086°30'0 0.1
2015-Jan-25 17:32N 30°31' W 086°30'0 0.0
2015-Jan-25 16:33N 30°31' W 086°30'0 0.1
2015-Jan-25 15:33N 30°31' W 086°30'0 0.0
2015-Jan-25 14:33N 30°31' W 086°30'0 0.0
2015-Jan-25 13:33N 30°31' W 086°30'0 0.1
2015-Jan-25 12:33N 30°31' W 086°30'0 0.0
2015-Jan-25 11:33N 30°31' W 086°30'0 0.0
2015-Jan-25 10:33N 30°31' W 086°30'0 0.0
2015-Jan-25 09:33N 30°31' W 086°30'0 0.0
2015-Jan-25 08:14N 30°31' W 086°30'0 0.0
2015-Jan-25 07:33N 30°31' W 086°30'0 0.0
2015-Jan-25 06:33N 30°31' W 086°30'0 0.0
2015-Jan-25 05:33N 30°31' W 086°30'0 0.0
2015-Jan-25 04:33N 30°31' W 086°30'0 0.0
2015-Jan-25 03:33N 30°31' W 086°30'0 0.0
2015-Jan-25 02:33N 30°31' W 086°30'0 0.0
2015-Jan-25 01:33N 30°31' W 086°30'0 0.0
2015-Jan-25 00:33N 30°31' W 086°30'0 0.0
2015-Jan-24 23:33N 30°31' W 086°30'1 0.9
2015-Jan-24 22:33N 30°30' W 086°29'5 4.7
2015-Jan-24 21:33N 30°26' W 086°31'8 5.2
2015-Jan-24 20:03N 30°24' W 086°40'3 4.8
2015-Jan-24 19:27N 30°24' W 086°43'5 5.1
2015-Jan-24 18:33N 30°24' W 086°48'4 4.4
2015-Jan-24 17:33N 30°24' W 086°53'  
2015-Jan-21 06:05N 29°60' W 090°00'0 0.0
2015-Jan-21 05:28N 29°60' W 090°00'0 0.1
2015-Jan-21 03:26N 29°60' W 090°01'1 1.3
2015-Jan-21 02:31N 29°59' W 090°01'2 1.5
2015-Jan-21 01:26N 29°57' W 090°02'0 0.3
2015-Jan-21 00:04N 29°57' W 090°02'0 0.0
2015-Jan-20 23:07N 29°57' W 090°02'0 0.0
2015-Jan-20 22:32N 29°57' W 090°02'0 0.0
2015-Jan-20 21:23N 29°57' W 090°02'0 0.0
2015-Jan-20 20:28N 29°57' W 090°02'0 0.0
2015-Jan-20 19:10N 29°57' W 090°02'0 0.0
2015-Jan-20 18:31N 29°57' W 090°02'0 0.0
2015-Jan-20 16:30N 29°57' W 090°02'0 0.3
2015-Jan-20 15:30N 29°57' W 090°02'0 0.3
2015-Jan-20 14:26N 29°57' W 090°02'0 0.0
2015-Jan-20 13:33N 29°57' W 090°02'0 0.0
2015-Jan-20 12:26N 29°57' W 090°02'0 0.0
2015-Jan-20 11:32N 29°57' W 090°02'0 0.0
2015-Jan-20 10:28N 29°57' W 090°02'0 0.0
2015-Jan-20 09:32N 29°57' W 090°02'0 0.0
2015-Jan-20 08:33N 29°57' W 090°02'0 0.0
2015-Jan-20 07:33N 29°57' W 090°02'0 0.0
2015-Jan-20 06:31N 29°57' W 090°02'0 0.0
2015-Jan-20 05:27N 29°57' W 090°02'0 0.0
2015-Jan-20 04:29N 29°57' W 090°02'0 0.0
2015-Jan-20 03:30N 29°57' W 090°02'0 0.0
2015-Jan-20 02:23N 29°57' W 090°02'0 0.0
2015-Jan-20 01:22N 29°57' W 090°02'0 0.0
2015-Jan-20 00:32N 29°57' W 090°02'0 0.0
2015-Jan-19 23:30N 29°57' W 090°02'0 0.0
2015-Jan-19 22:33N 29°57' W 090°02'0 0.0
2015-Jan-19 21:33N 29°57' W 090°02'2 1.7
2015-Jan-19 20:17N 29°56' W 090°04'3 2.5
2015-Jan-19 19:03N 29°54' W 090°07'0 0.0
2015-Jan-19 17:24N 29°54' W 090°07'0 0.0
2015-Jan-19 16:29N 29°54' W 090°07'0 0.0
2015-Jan-19 15:32N 29°54' W 090°07'0 0.1
2015-Jan-19 14:08N 29°54' W 090°07'0 0.6
2015-Jan-19 13:31N 29°54' W 090°07'0 0.3
2015-Jan-19 12:30N 29°54' W 090°07'0 0.0
2015-Jan-19 10:04N 29°54' W 090°07'0 0.1
2015-Jan-19 09:27N 29°54' W 090°07'0 0.0
2015-Jan-19 08:31N 29°54' W 090°07'5 3.7
2015-Jan-19 07:17N 29°57' W 090°03'5 4.4
2015-Jan-19 06:10N 29°55' W 089°58'3 0.9
2015-Jan-19 03:16N 29°53' W 090°00'3 3.1
2015-Jan-19 02:26N 29°55' W 089°58'5 5.5
2015-Jan-19 01:31N 29°57' W 090°04'5 4.3
2015-Jan-19 00:14N 29°57' W 090°10'0 0.0
2015-Jan-18 01:31N 29°57' W 090°10'  

Dump ship's entire track history